createdAt,value
2023-08-12T00:03:29.501Z,4.00
2023-08-12T00:18:37.859Z,4.00
2023-08-12T00:33:42.594Z,4.17
2023-08-12T00:48:47.399Z,4.13
2023-08-12T01:03:52.626Z,3.83
2023-08-12T01:18:58.128Z,3.90
2023-08-12T01:34:12.558Z,3.97
2023-08-12T01:49:17.242Z,3.67
2023-08-12T02:04:21.884Z,3.30
2023-08-12T02:19:26.512Z,3.80
2023-08-12T02:34:31.704Z,3.47
2023-08-12T02:49:36.272Z,3.27
2023-08-12T03:04:40.904Z,3.13
2023-08-12T03:19:45.904Z,3.37
2023-08-12T03:34:50.663Z,3.58
2023-08-12T03:49:55.702Z,3.67
2023-08-12T04:05:01.620Z,3.33
2023-08-12T04:20:08.052Z,3.30
2023-08-12T04:35:14.667Z,3.03
2023-08-12T04:50:20.567Z,3.30
2023-08-12T05:05:25.315Z,3.00
2023-08-12T05:20:30.392Z,3.80
2023-08-12T05:35:36.973Z,3.83
2023-08-12T05:50:41.565Z,4.33
2023-08-12T06:05:47.760Z,3.83
2023-08-12T06:20:52.307Z,4.82
2023-08-12T06:35:56.905Z,3.90
2023-08-12T06:51:05.160Z,9.05
2023-08-12T07:06:09.748Z,12.45
2023-08-12T07:21:14.359Z,10.45
2023-08-12T07:36:18.963Z,5.72
2023-08-12T07:51:23.567Z,4.45
2023-08-12T08:06:28.612Z,3.75
2023-08-12T08:21:33.242Z,3.87
2023-08-12T08:36:38.225Z,3.67
2023-08-12T08:51:43.813Z,3.50
2023-08-12T09:06:49.917Z,3.70
2023-08-12T09:21:55.922Z,4.10
2023-08-12T09:37:00.939Z,4.00
2023-08-12T09:52:06.986Z,27.53
2023-08-12T10:07:13.975Z,45.63
2023-08-12T10:22:19.149Z,20.83
2023-08-12T10:37:25.371Z,13.97
2023-08-12T10:52:30.850Z,8.80
2023-08-12T11:07:41.389Z,6.00
2023-08-12T11:22:46.666Z,5.00
2023-08-12T11:37:54.150Z,4.07
2023-08-12T11:52:59.675Z,4.00
2023-08-12T12:08:06.382Z,3.47
2023-08-12T12:23:11.095Z,3.00
2023-08-12T12:38:15.721Z,3.03
2023-08-12T12:53:20.319Z,2.77
2023-08-12T13:08:25.052Z,2.90
2023-08-12T13:23:29.722Z,3.10
2023-08-12T13:38:36.686Z,3.40
2023-08-12T13:53:41.325Z,2.80
2023-08-12T14:08:45.903Z,2.83
2023-08-12T14:23:50.582Z,3.00
2023-08-12T14:38:55.270Z,2.80
2023-08-12T14:53:59.862Z,3.00
2023-08-12T15:09:04.661Z,2.97
2023-08-12T15:24:09.952Z,2.73
2023-08-12T15:39:15.182Z,3.50
2023-08-12T15:54:19.799Z,4.57
2023-08-12T16:09:24.657Z,3.50
2023-08-12T16:24:29.327Z,2.97
2023-08-12T16:39:33.945Z,3.00
2023-08-12T16:54:38.594Z,2.93
2023-08-12T17:09:45.275Z,3.50
2023-08-12T17:39:56.319Z,3.20
2023-08-12T17:55:00.934Z,3.00
2023-08-12T18:10:06.203Z,2.40
2023-08-12T18:25:10.935Z,2.50
2023-08-12T18:40:15.581Z,2.50
2023-08-12T18:55:22.081Z,2.60
2023-08-12T19:10:27.004Z,2.33
2023-08-12T19:25:32.056Z,2.60
2023-08-12T19:40:36.824Z,2.27
2023-08-12T19:55:41.486Z,2.17
2023-08-12T20:10:46.134Z,2.40
2023-08-12T20:25:52.361Z,2.43
2023-08-12T20:40:58.103Z,2.33
2023-08-12T20:56:02.713Z,2.20
2023-08-12T21:11:08.185Z,2.63
2023-08-12T21:26:12.805Z,2.40
2023-08-12T21:41:17.385Z,2.37
2023-08-12T21:56:22.148Z,2.30
2023-08-12T22:11:28.639Z,2.37
2023-08-12T22:26:33.325Z,2.43
2023-08-12T22:41:37.952Z,2.70
2023-08-12T22:56:43.163Z,2.70
2023-08-12T23:11:47.740Z,2.10
2023-08-12T23:26:52.390Z,2.40
2023-08-12T23:41:57.032Z,2.20
2023-08-12T23:57:02.101Z,2.20
